Wetterdaten: aktuell Freitag, 04.09.2026 14:00
Datum Zeit Temp. A. Feuchte A. Luftdruck Regen Wind Richtung Richtung Sonnenschein Solar Taupunkt Windchill Windböen
04.09.2026 14:00 27,7 °C 51 % 1014,6 hPa 0,0 l/m² 16,1 km/h S-SW 202 ° 5 min 703 W/m² 16,6 °C 26,5 °C 32,2 km/h
04.09.2026 13:55 27,7 °C 51 % 1014,8 hPa 0,0 l/m² 16,1 km/h S-SW 202 ° 5 min 705 W/m² 16,6 °C 26,5 °C 32,2 km/h
04.09.2026 13:50 27,6 °C 51 % 1014,6 hPa 0,0 l/m² 16,1 km/h S-SW 202 ° 5 min 710 W/m² 16,5 °C 26,4 °C 30,6 km/h
04.09.2026 13:45 27,5 °C 52 % 1014,7 hPa 0,0 l/m² 12,9 km/h S-SW 202 ° 5 min 712 W/m² 16,7 °C 26,6 °C 32,2 km/h
04.09.2026 13:40 27,5 °C 54 % 1014,9 hPa 0,0 l/m² 12,9 km/h S-SW 202 ° 5 min 712 W/m² 17,3 °C 26,6 °C 22,5 km/h
04.09.2026 13:35 27,4 °C 52 % 1015,0 hPa 0,0 l/m² 14,5 km/h S-SW 202 ° 5 min 719 W/m² 16,7 °C 26,3 °C 27,4 km/h
04.09.2026 13:30 28,1 °C 52 % 1015,0 hPa 0,0 l/m² 6,4 km/h W-SW 247 ° 5 min 721 W/m² 17,3 °C 28,1 °C 22,5 km/h
04.09.2026 13:25 27,4 °C 52 % 1015,2 hPa 0,0 l/m² 14,5 km/h S-SW 202 ° 5 min 719 W/m² 16,7 °C 26,3 °C 32,2 km/h
04.09.2026 13:20 27,2 °C 54 % 1015,3 hPa 0,0 l/m² 12,9 km/h S 180 ° 5 min 724 W/m² 17,1 °C 26,2 °C 24,1 km/h
04.09.2026 13:15 27,1 °C 54 % 1015,3 hPa 0,0 l/m² 17,7 km/h S 180 ° 5 min 726 W/m² 17,0 °C 25,6 °C 35,4 km/h
04.09.2026 13:10 27,3 °C 54 % 1015,4 hPa 0,0 l/m² 11,3 km/h S-SO 157 ° 5 min 726 W/m² 17,2 °C 26,5 °C 25,7 km/h
04.09.2026 13:05 27,4 °C 55 % 1015,4 hPa 0,0 l/m² 8,0 km/h W-SW 247 ° 5 min 717 W/m² 17,5 °C 27,1 °C 14,5 km/h
04.09.2026 13:00 27,3 °C 56 % 1015,6 hPa 0,0 l/m² 8,0 km/h S 180 ° 5 min 721 W/m² 17,7 °C 27,0 °C 16,1 km/h
04.09.2026 12:55 27,1 °C 58 % 1015,8 hPa 0,0 l/m² 9,7 km/h S 180 ° 5 min 722 W/m² 18,1 °C 26,5 °C 25,7 km/h
04.09.2026 12:50 26,7 °C 55 % 1016,0 hPa 0,0 l/m² 11,3 km/h S-SW 202 ° 5 min 729 W/m² 16,9 °C 25,8 °C 19,3 km/h
04.09.2026 12:45 26,8 °C 58 % 1016,1 hPa 0,0 l/m² 11,3 km/h S-SW 202 ° 5 min 721 W/m² 17,8 °C 26,0 °C 19,3 km/h
04.09.2026 12:40 26,6 °C 58 % 1016,2 hPa 0,0 l/m² 9,7 km/h S-SW 202 ° 5 min 738 W/m² 17,6 °C 26,0 °C 17,7 km/h
04.09.2026 12:35 26,1 °C 59 % 1016,2 hPa 0,0 l/m² 9,7 km/h S 180 ° 5 min 742 W/m² 17,4 °C 25,4 °C 22,5 km/h
04.09.2026 12:30 25,9 °C 59 % 1016,3 hPa 0,0 l/m² 14,5 km/h S-SW 202 ° 5 min 729 W/m² 17,3 °C 24,5 °C 25,7 km/h
04.09.2026 12:25 25,8 °C 60 % 1016,4 hPa 0,0 l/m² 14,5 km/h S-SW 202 ° 5 min 726 W/m² 17,4 °C 24,3 °C 25,7 km/h
04.09.2026 12:20 25,8 °C 60 % 1016,4 hPa 0,0 l/m² 12,9 km/h S 180 ° 5 min 722 W/m² 17,4 °C 24,6 °C 22,5 km/h
04.09.2026 12:15 25,7 °C 61 % 1016,5 hPa 0,0 l/m² 14,5 km/h S-SW 202 ° 5 min 724 W/m² 17,6 °C 24,2 °C 24,1 km/h
04.09.2026 12:10 26,1 °C 63 % 1016,6 hPa 0,0 l/m² 9,7 km/h SO 135 ° 5 min 765 W/m² 18,5 °C 25,4 °C 20,9 km/h
04.09.2026 12:05 25,8 °C 65 % 1016,7 hPa 0,0 l/m² 9,7 km/h SO 135 ° 5 min 786 W/m² 18,7 °C 25,1 °C 17,7 km/h
04.09.2026 12:00 25,4 °C 67 % 1016,8 hPa 0,0 l/m² 6,4 km/h SO 135 ° 5 min 708 W/m² 18,8 °C 25,4 °C 12,9 km/h
04.09.2026 11:55 24,7 °C 68 % 1016,9 hPa 0,0 l/m² 8,0 km/h S-SO 157 ° 5 min 689 W/m² 18,4 °C 24,3 °C 14,5 km/h
04.09.2026 11:50 24,9 °C 68 % 1017,0 hPa 0,0 l/m² 4,8 km/h S-SO 157 ° 5 min 684 W/m² 18,6 °C 24,9 °C 12,9 km/h
04.09.2026 11:45 24,4 °C 71 % 1017,2 hPa 0,0 l/m² 6,4 km/h O-SO 112 ° 5 min 666 W/m² 18,8 °C 24,4 °C 12,9 km/h
04.09.2026 11:40 23,8 °C 70 % 1017,3 hPa 0,0 l/m² 6,4 km/h S-SO 157 ° 5 min 652 W/m² 18,0 °C 23,8 °C 12,9 km/h
04.09.2026 11:35 23,8 °C 69 % 1017,3 hPa 0,0 l/m² 4,8 km/h O-SO 112 ° 5 min 633 W/m² 17,8 °C 23,8 °C 12,9 km/h
04.09.2026 11:30 23,3 °C 72 % 1017,4 hPa 0,0 l/m² 8,0 km/h S-SO 157 ° 5 min 631 W/m² 18,0 °C 22,8 °C 14,5 km/h
04.09.2026 11:25 23,1 °C 71 % 1017,6 hPa 0,0 l/m² 6,4 km/h S-SO 157 ° 5 min 633 W/m² 17,5 °C 23,1 °C 11,3 km/h
04.09.2026 11:20 22,9 °C 74 % 1017,7 hPa 0,0 l/m² 6,4 km/h S-SO 157 ° 5 min 617 W/m² 18,0 °C 22,9 °C 12,9 km/h
04.09.2026 11:15 23,1 °C 71 % 1017,8 hPa 0,0 l/m² 6,4 km/h S-SO 157 ° 5 min 626 W/m² 17,5 °C 23,1 °C 12,9 km/h
04.09.2026 11:10 22,8 °C 73 % 1017,9 hPa 0,0 l/m² 4,8 km/h SO 135 ° 5 min 650 W/m² 17,7 °C 22,8 °C 16,1 km/h
04.09.2026 11:05 23,3 °C 72 % 1018,0 hPa 0,0 l/m² 3,2 km/h SO 135 ° 5 min 642 W/m² 18,0 °C 23,3 °C 9,7 km/h
04.09.2026 11:00 22,2 °C 74 % 1018,1 hPa 0,0 l/m² 4,8 km/h SO 135 ° 5 min 612 W/m² 17,3 °C 22,2 °C 12,9 km/h
04.09.2026 10:55 22,1 °C 73 % 1018,2 hPa 0,0 l/m² 4,8 km/h S 180 ° 5 min 642 W/m² 17,0 °C 22,1 °C 8,0 km/h
04.09.2026 10:50 22,4 °C 73 % 1018,2 hPa 0,0 l/m² 3,2 km/h SO 135 ° 5 min 675 W/m² 17,3 °C 22,4 °C 8,0 km/h
04.09.2026 10:45 21,4 °C 75 % 1018,2 hPa 0,0 l/m² 3,2 km/h S-SO 157 ° 5 min 621 W/m² 16,8 °C 21,4 °C 12,9 km/h
04.09.2026 10:40 21,1 °C 74 % 1018,3 hPa 0,0 l/m² 3,2 km/h S-SO 157 ° 5 min 626 W/m² 16,3 °C 21,1 °C 11,3 km/h
04.09.2026 10:35 20,6 °C 76 % 1018,3 hPa 0,0 l/m² 4,8 km/h SO 135 ° 0 min 357 W/m² 16,2 °C 20,6 °C 8,0 km/h
04.09.2026 10:30 20,4 °C 75 % 1018,3 hPa 0,0 l/m² 4,8 km/h S 180 ° 0 min 345 W/m² 15,8 °C 20,4 °C 9,7 km/h
04.09.2026 10:25 20,5 °C 76 % 1018,4 hPa 0,0 l/m² 3,2 km/h S-SO 157 ° 0 min 359 W/m² 16,1 °C 20,5 °C 8,0 km/h
04.09.2026 10:20 20,3 °C 76 % 1018,4 hPa 0,0 l/m² 3,2 km/h S-SO 157 ° 0 min 325 W/m² 15,9 °C 20,3 °C 8,0 km/h
04.09.2026 10:15 20,2 °C 76 % 1018,5 hPa 0,0 l/m² 1,6 km/h S 180 ° 0 min 322 W/m² 15,8 °C 20,2 °C 8,0 km/h
04.09.2026 10:10 19,8 °C 79 % 1018,5 hPa 0,0 l/m² 1,6 km/h S 180 ° 0 min 274 W/m² 16,0 °C 19,8 °C 8,0 km/h
04.09.2026 10:05 19,8 °C 77 % 1018,4 hPa 0,0 l/m² 3,2 km/h S-SO 157 ° 0 min 295 W/m² 15,6 °C 19,8 °C 8,0 km/h
04.09.2026 10:00 19,7 °C 76 % 1018,4 hPa 0,0 l/m² 1,6 km/h S-SO 157 ° 0 min 302 W/m² 15,3 °C 19,7 °C 6,4 km/h
04.09.2026 09:55 19,7 °C 77 % 1018,4 hPa 0,0 l/m² 1,6 km/h S-SO 157 ° 5 min 392 W/m² 15,5 °C 19,7 °C 6,4 km/h
04.09.2026 09:50 19,6 °C 76 % 1018,6 hPa 0,0 l/m² 4,8 km/h S-SO 157 ° 0 min 283 W/m² 15,2 °C 19,6 °C 9,7 km/h
04.09.2026 09:45 19,8 °C 78 % 1018,5 hPa 0,0 l/m² 0,0 km/h S-SO 157 ° 0 min 288 W/m² 15,8 °C 19,8 °C 1,6 km/h
04.09.2026 09:40 19,4 °C 81 % 1018,5 hPa 0,0 l/m² 3,2 km/h S 180 ° 0 min 264 W/m² 16,1 °C 19,4 °C 8,0 km/h
04.09.2026 09:35 19,1 °C 80 % 1018,5 hPa 0,0 l/m² 0,0 km/h S 180 ° 0 min 216 W/m² 15,6 °C 19,1 °C 4,8 km/h
04.09.2026 09:30 18,8 °C 79 % 1018,5 hPa 0,0 l/m² 1,6 km/h S 180 ° 0 min 265 W/m² 15,1 °C 18,8 °C 4,8 km/h
04.09.2026 09:25 18,6 °C 82 % 1018,5 hPa 0,0 l/m² 0,0 km/h S 180 ° 0 min 183 W/m² 15,5 °C 18,6 °C 3,2 km/h
04.09.2026 09:20 18,4 °C 85 % 1018,6 hPa 0,0 l/m² 0,0 km/h S 180 ° 0 min 176 W/m² 15,8 °C 18,4 °C 3,2 km/h
04.09.2026 09:15 18,3 °C 87 % 1018,6 hPa 0,0 l/m² 0,0 km/h S 180 ° 0 min 185 W/m² 16,1 °C 18,3 °C 3,2 km/h
04.09.2026 09:10 18,1 °C 89 % 1018,6 hPa 0,0 l/m² 0,0 km/h N 0 ° 0 min 188 W/m² 16,3 °C 18,1 °C 0,0 km/h
04.09.2026 09:05 17,9 °C 89 % 1018,6 hPa 0,0 l/m² 0,0 km/h S 180 ° 0 min 186 W/m² 16,1 °C 17,9 °C 1,6 km/h
04.09.2026 09:00 17,7 °C 90 % 1018,7 hPa 0,0 l/m² 0,0 km/h S 180 ° 0 min 174 W/m² 16,0 °C 17,7 °C 3,2 km/h
04.09.2026 08:55 17,4 °C 90 % 1018,7 hPa 0,0 l/m² 0,0 km/h O 90 ° 0 min 148 W/m² 15,7 °C 17,4 °C 3,2 km/h
04.09.2026 08:50 17,2 °C 91 % 1018,7 hPa 0,0 l/m² 1,6 km/h O 90 ° 0 min 144 W/m² 15,7 °C 17,2 °C 4,8 km/h
04.09.2026 08:45 17,1 °C 93 % 1018,6 hPa 0,0 l/m² 0,0 km/h O-NO 67 ° 0 min 146 W/m² 16,0 °C 17,1 °C 1,6 km/h
04.09.2026 08:40 16,9 °C 93 % 1018,6 hPa 0,0 l/m² 0,0 km/h N 0 ° 0 min 135 W/m² 15,8 °C 16,9 °C 0,0 km/h
04.09.2026 08:35 16,8 °C 94 % 1018,6 hPa 0,0 l/m² 0,0 km/h O-NO 67 ° 0 min 125 W/m² 15,8 °C 16,8 °C 1,6 km/h
04.09.2026 08:30 16,6 °C 94 % 1018,6 hPa 0,0 l/m² 0,0 km/h N 0 ° 0 min 118 W/m² 15,6 °C 16,6 °C 0,0 km/h
04.09.2026 08:25 16,4 °C 94 % 1018,6 hPa 0,0 l/m² 0,0 km/h NO 45 ° 0 min 93 W/m² 15,4 °C 16,4 °C 1,6 km/h
04.09.2026 08:20 16,3 °C 95 % 1018,6 hPa 0,0 l/m² 0,0 km/h NO 45 ° 0 min 97 W/m² 15,5 °C 16,3 °C 1,6 km/h
04.09.2026 08:15 16,1 °C 95 % 1018,6 hPa 0,0 l/m² 0,0 km/h NO 45 ° 0 min 109 W/m² 15,3 °C 16,1 °C 1,6 km/h
04.09.2026 08:10 15,9 °C 95 % 1018,7 hPa 0,0 l/m² 0,0 km/h NO 45 ° 0 min 104 W/m² 15,1 °C 15,9 °C 4,8 km/h
04.09.2026 08:05 15,7 °C 95 % 1018,8 hPa 0,0 l/m² 0,0 km/h N 0 ° 0 min 84 W/m² 14,9 °C 15,7 °C 0,0 km/h
04.09.2026 08:00 15,6 °C 95 % 1018,8 hPa 0,0 l/m² 0,0 km/h N 0 ° 0 min 118 W/m² 14,8 °C 15,6 °C 0,0 km/h
04.09.2026 07:55 15,4 °C 95 % 1018,8 hPa 0,0 l/m² 0,0 km/h NO 45 ° 0 min 81 W/m² 14,6 °C 15,4 °C 1,6 km/h
04.09.2026 07:50 15,3 °C 95 % 1018,7 hPa 0,0 l/m² 0,0 km/h NO 45 ° 0 min 65 W/m² 14,5 °C 15,3 °C 1,6 km/h
04.09.2026 07:45 15,1 °C 95 % 1018,7 hPa 0,0 l/m² 0,0 km/h N 0 ° 0 min 53 W/m² 14,3 °C 15,1 °C 0,0 km/h
04.09.2026 07:40 15,0 °C 95 % 1018,7 hPa 0,0 l/m² 0,0 km/h N 0 ° 0 min 56 W/m² 14,2 °C 15,0 °C 0,0 km/h
04.09.2026 07:35 14,8 °C 95 % 1018,7 hPa 0,0 l/m² 0,0 km/h NO 45 ° 5 min 134 W/m² 14,0 °C 14,8 °C 1,6 km/h
04.09.2026 07:30 14,7 °C 95 % 1018,7 hPa 0,0 l/m² 0,0 km/h N 0 ° 5 min 128 W/m² 13,9 °C 14,7 °C 0,0 km/h
04.09.2026 07:25 14,6 °C 94 % 1018,6 hPa 0,0 l/m² 0,0 km/h N 0 ° 0 min 69 W/m² 13,6 °C 14,6 °C 0,0 km/h
04.09.2026 07:20 14,5 °C 94 % 1018,6 hPa 0,0 l/m² 0,0 km/h N 0 ° 0 min 39 W/m² 13,5 °C 14,5 °C 0,0 km/h
04.09.2026 07:15 14,5 °C 94 % 1018,7 hPa 0,0 l/m² 0,0 km/h N 0 ° 0 min 32 W/m² 13,5 °C 14,5 °C 0,0 km/h
04.09.2026 07:10 14,5 °C 94 % 1018,8 hPa 0,0 l/m² 0,0 km/h NO 45 ° 0 min 23 W/m² 13,5 °C 14,5 °C 1,6 km/h
04.09.2026 07:05 14,4 °C 94 % 1018,7 hPa 0,0 l/m² 1,6 km/h NO 45 ° 0 min 21 W/m² 13,4 °C 14,4 °C 4,8 km/h
04.09.2026 07:00 14,4 °C 94 % 1018,7 hPa 0,0 l/m² 1,6 km/h NO 45 ° 0 min 21 W/m² 13,4 °C 14,4 °C 4,8 km/h
04.09.2026 06:55 14,3 °C 94 % 1018,6 hPa 0,0 l/m² 1,6 km/h NO 45 ° 0 min 14 W/m² 13,3 °C 14,3 °C 6,4 km/h
04.09.2026 06:50 14,3 °C 94 % 1018,6 hPa 0,0 l/m² 0,0 km/h NO 45 ° 0 min 14 W/m² 13,3 °C 14,3 °C 1,6 km/h
04.09.2026 06:45 14,3 °C 93 % 1018,7 hPa 0,0 l/m² 3,2 km/h NO 45 ° 0 min 9 W/m² 13,2 °C 14,3 °C 6,4 km/h
04.09.2026 06:40 14,3 °C 93 % 1018,6 hPa 0,0 l/m² 1,6 km/h NO 45 ° 0 min 5 W/m² 13,2 °C 14,3 °C 6,4 km/h
04.09.2026 06:35 14,3 °C 93 % 1018,6 hPa 0,0 l/m² 1,6 km/h NO 45 ° 0 min 0 W/m² 13,2 °C 14,3 °C 4,8 km/h
04.09.2026 06:30 14,3 °C 93 % 1018,4 hPa 0,0 l/m² 0,0 km/h NO 45 ° 0 min 0 W/m² 13,2 °C 14,3 °C 1,6 km/h
04.09.2026 06:25 14,4 °C 93 % 1018,4 hPa 0,0 l/m² 0,0 km/h NO 45 ° 0 min 0 W/m² 13,3 °C 14,4 °C 4,8 km/h
04.09.2026 06:20 14,4 °C 93 % 1018,4 hPa 0,0 l/m² 1,6 km/h NO 45 ° 0 min 0 W/m² 13,3 °C 14,4 °C 3,2 km/h
04.09.2026 06:15 14,5 °C 93 % 1018,6 hPa 0,0 l/m² 0,0 km/h N 0 ° 0 min 0 W/m² 13,4 °C 14,5 °C 0,0 km/h
04.09.2026 06:10 14,5 °C 93 % 1018,7 hPa 0,0 l/m² 0,0 km/h N 0 ° 0 min 0 W/m² 13,4 °C 14,5 °C 0,0 km/h
04.09.2026 06:05 14,6 °C 93 % 1018,7 hPa 0,0 l/m² 0,0 km/h NO 45 ° 0 min 0 W/m² 13,5 °C 14,6 °C 3,2 km/h
04.09.2026 06:00 14,6 °C 93 % 1018,6 hPa 0,0 l/m² 1,6 km/h NO 45 ° 0 min 0 W/m² 13,5 °C 14,6 °C 3,2 km/h
04.09.2026 05:55 14,6 °C 93 % 1018,6 hPa 0,0 l/m² 0,0 km/h NO 45 ° 0 min 0 W/m² 13,5 °C 14,6 °C 1,6 km/h
04.09.2026 05:50 14,6 °C 93 % 1018,7 hPa 0,0 l/m² 1,6 km/h NO 45 ° 0 min 0 W/m² 13,5 °C 14,6 °C 3,2 km/h
04.09.2026 05:45 14,6 °C 93 % 1018,8 hPa 0,0 l/m² 1,6 km/h NO 45 ° 0 min 0 W/m² 13,5 °C 14,6 °C 4,8 km/h
04.09.2026 05:40 14,6 °C 93 % 1018,9 hPa 0,0 l/m² 0,0 km/h NO 45 ° 0 min 0 W/m² 13,5 °C 14,6 °C 3,2 km/h
04.09.2026 05:35 14,6 °C 93 % 1019,0 hPa 0,0 l/m² 0,0 km/h NO 45 ° 0 min 0 W/m² 13,5 °C 14,6 °C 1,6 km/h
04.09.2026 05:30 14,6 °C 93 % 1019,0 hPa 0,0 l/m² 0,0 km/h NO 45 ° 0 min 0 W/m² 13,5 °C 14,6 °C 1,6 km/h
04.09.2026 05:25 14,6 °C 93 % 1019,0 hPa 0,0 l/m² 0,0 km/h N 0 ° 0 min 0 W/m² 13,5 °C 14,6 °C 0,0 km/h
04.09.2026 05:20 14,6 °C 93 % 1019,0 hPa 0,0 l/m² 0,0 km/h NO 45 ° 0 min 0 W/m² 13,5 °C 14,6 °C 3,2 km/h
04.09.2026 05:15 14,6 °C 93 % 1019,0 hPa 0,0 l/m² 0,0 km/h NO 45 ° 0 min 0 W/m² 13,5 °C 14,6 °C 3,2 km/h
04.09.2026 05:10 14,6 °C 93 % 1018,9 hPa 0,0 l/m² 1,6 km/h NO 45 ° 0 min 0 W/m² 13,5 °C 14,6 °C 4,8 km/h
04.09.2026 05:05 14,6 °C 93 % 1019,0 hPa 0,0 l/m² 1,6 km/h NO 45 ° 0 min 0 W/m² 13,5 °C 14,6 °C 3,2 km/h
04.09.2026 05:00 14,6 °C 93 % 1019,0 hPa 0,0 l/m² 1,6 km/h NO 45 ° 0 min 0 W/m² 13,5 °C 14,6 °C 6,4 km/h
04.09.2026 04:55 14,6 °C 93 % 1019,1 hPa 0,0 l/m² 1,6 km/h NO 45 ° 0 min 0 W/m² 13,5 °C 14,6 °C 4,8 km/h
04.09.2026 04:50 14,6 °C 93 % 1019,2 hPa 0,0 l/m² 0,0 km/h NO 45 ° 0 min 0 W/m² 13,5 °C 14,6 °C 3,2 km/h
04.09.2026 04:45 14,6 °C 93 % 1019,2 hPa 0,0 l/m² 0,0 km/h NO 45 ° 0 min 0 W/m² 13,5 °C 14,6 °C 3,2 km/h
04.09.2026 04:40 14,6 °C 93 % 1019,1 hPa 0,0 l/m² 0,0 km/h NO 45 ° 0 min 0 W/m² 13,5 °C 14,6 °C 3,2 km/h
04.09.2026 04:35 14,6 °C 92 % 1019,1 hPa 0,0 l/m² 0,0 km/h NO 45 ° 0 min 0 W/m² 13,3 °C 14,6 °C 3,2 km/h
04.09.2026 04:30 14,7 °C 92 % 1019,1 hPa 0,0 l/m² 1,6 km/h NO 45 ° 0 min 0 W/m² 13,4 °C 14,7 °C 3,2 km/h
04.09.2026 04:25 14,7 °C 92 % 1019,0 hPa 0,0 l/m² 1,6 km/h NO 45 ° 0 min 0 W/m² 13,4 °C 14,7 °C 3,2 km/h
04.09.2026 04:20 14,7 °C 92 % 1019,1 hPa 0,0 l/m² 1,6 km/h NO 45 ° 0 min 0 W/m² 13,4 °C 14,7 °C 6,4 km/h
04.09.2026 04:15 14,8 °C 92 % 1019,0 hPa 0,0 l/m² 0,0 km/h NO 45 ° 0 min 0 W/m² 13,5 °C 14,8 °C 3,2 km/h
04.09.2026 04:10 14,9 °C 92 % 1019,1 hPa 0,0 l/m² 1,6 km/h NO 45 ° 0 min 0 W/m² 13,6 °C 14,9 °C 4,8 km/h
04.09.2026 04:05 14,9 °C 92 % 1019,0 hPa 0,0 l/m² 1,6 km/h NO 45 ° 0 min 0 W/m² 13,6 °C 14,9 °C 6,4 km/h
04.09.2026 04:00 15,0 °C 92 % 1019,0 hPa 0,0 l/m² 1,6 km/h NO 45 ° 0 min 0 W/m² 13,7 °C 15,0 °C 3,2 km/h
04.09.2026 03:55 15,1 °C 92 % 1019,1 hPa 0,0 l/m² 1,6 km/h NO 45 ° 0 min 0 W/m² 13,8 °C 15,1 °C 4,8 km/h
04.09.2026 03:50 15,1 °C 91 % 1019,0 hPa 0,0 l/m² 1,6 km/h NO 45 ° 0 min 0 W/m² 13,6 °C 15,1 °C 4,8 km/h
04.09.2026 03:45 15,2 °C 91 % 1018,9 hPa 0,0 l/m² 1,6 km/h NO 45 ° 0 min 0 W/m² 13,7 °C 15,2 °C 4,8 km/h
04.09.2026 03:40 15,2 °C 91 % 1018,9 hPa 0,0 l/m² 1,6 km/h NO 45 ° 0 min 0 W/m² 13,7 °C 15,2 °C 4,8 km/h
04.09.2026 03:35 15,3 °C 91 % 1019,0 hPa 0,0 l/m² 1,6 km/h NO 45 ° 0 min 0 W/m² 13,8 °C 15,3 °C 4,8 km/h
04.09.2026 03:30 15,3 °C 91 % 1019,1 hPa 0,0 l/m² 1,6 km/h NO 45 ° 0 min 0 W/m² 13,8 °C 15,3 °C 3,2 km/h
04.09.2026 03:25 15,4 °C 91 % 1019,2 hPa 0,0 l/m² 0,0 km/h NO 45 ° 0 min 0 W/m² 13,9 °C 15,4 °C 3,2 km/h
04.09.2026 03:20 15,4 °C 91 % 1019,2 hPa 0,0 l/m² 1,6 km/h NO 45 ° 0 min 0 W/m² 13,9 °C 15,4 °C 4,8 km/h
04.09.2026 03:15 15,6 °C 91 % 1019,1 hPa 0,0 l/m² 0,0 km/h NO 45 ° 0 min 0 W/m² 14,1 °C 15,6 °C 3,2 km/h
04.09.2026 03:10 15,6 °C 90 % 1019,1 hPa 0,0 l/m² 0,0 km/h NO 45 ° 0 min 0 W/m² 14,0 °C 15,6 °C 3,2 km/h
04.09.2026 03:05 15,7 °C 90 % 1019,0 hPa 0,0 l/m² 0,0 km/h NO 45 ° 0 min 0 W/m² 14,1 °C 15,7 °C 1,6 km/h
04.09.2026 03:00 15,8 °C 90 % 1019,1 hPa 0,0 l/m² 0,0 km/h NO 45 ° 0 min 0 W/m² 14,2 °C 15,8 °C 1,6 km/h
04.09.2026 02:55 15,9 °C 90 % 1019,3 hPa 0,0 l/m² 1,6 km/h NO 45 ° 0 min 0 W/m² 14,3 °C 15,9 °C 3,2 km/h
04.09.2026 02:50 15,9 °C 90 % 1019,3 hPa 0,0 l/m² 0,0 km/h NO 45 ° 0 min 0 W/m² 14,3 °C 15,9 °C 3,2 km/h
04.09.2026 02:45 16,0 °C 90 % 1019,3 hPa 0,0 l/m² 1,6 km/h NO 45 ° 0 min 0 W/m² 14,4 °C 16,0 °C 3,2 km/h
04.09.2026 02:40 16,1 °C 89 % 1019,2 hPa 0,0 l/m² 0,0 km/h N 0 ° 0 min 0 W/m² 14,3 °C 16,1 °C 0,0 km/h
04.09.2026 02:35 16,2 °C 89 % 1019,2 hPa 0,0 l/m² 0,0 km/h NO 45 ° 0 min 0 W/m² 14,4 °C 16,2 °C 1,6 km/h
04.09.2026 02:30 16,3 °C 89 % 1019,2 hPa 0,0 l/m² 0,0 km/h NO 45 ° 0 min 0 W/m² 14,5 °C 16,3 °C 1,6 km/h
04.09.2026 02:25 16,4 °C 89 % 1019,5 hPa 0,0 l/m² 0,0 km/h NO 45 ° 0 min 0 W/m² 14,6 °C 16,4 °C 4,8 km/h
04.09.2026 02:20 16,5 °C 88 % 1019,5 hPa 0,0 l/m² 0,0 km/h O-SO 112 ° 0 min 0 W/m² 14,5 °C 16,5 °C 1,6 km/h
04.09.2026 02:15 16,6 °C 88 % 1019,5 hPa 0,0 l/m² 0,0 km/h O-SO 112 ° 0 min 0 W/m² 14,6 °C 16,6 °C 1,6 km/h
04.09.2026 02:10 16,7 °C 88 % 1019,7 hPa 0,0 l/m² 0,0 km/h O-SO 112 ° 0 min 0 W/m² 14,7 °C 16,7 °C 3,2 km/h
04.09.2026 02:05 16,8 °C 88 % 1019,8 hPa 0,0 l/m² 0,0 km/h O-SO 112 ° 0 min 0 W/m² 14,8 °C 16,8 °C 1,6 km/h
04.09.2026 02:00 16,8 °C 88 % 1019,8 hPa 0,0 l/m² 0,0 km/h N 0 ° 0 min 0 W/m² 14,8 °C 16,8 °C 0,0 km/h
04.09.2026 01:55 16,9 °C 88 % 1019,8 hPa 0,0 l/m² 0,0 km/h N 0 ° 0 min 0 W/m² 14,9 °C 16,9 °C 0,0 km/h
04.09.2026 01:50 17,0 °C 88 % 1019,8 hPa 0,0 l/m² 0,0 km/h N 0 ° 0 min 0 W/m² 15,0 °C 17,0 °C 0,0 km/h
04.09.2026 01:45 17,1 °C 87 % 1019,8 hPa 0,0 l/m² 0,0 km/h N 0 ° 0 min 0 W/m² 14,9 °C 17,1 °C 0,0 km/h
04.09.2026 01:40 17,2 °C 87 % 1019,8 hPa 0,0 l/m² 0,0 km/h N 0 ° 0 min 0 W/m² 15,0 °C 17,2 °C 0,0 km/h
04.09.2026 01:35 17,3 °C 87 % 1019,9 hPa 0,0 l/m² 0,0 km/h O-SO 112 ° 0 min 0 W/m² 15,1 °C 17,3 °C 1,6 km/h
04.09.2026 01:30 17,3 °C 87 % 1019,9 hPa 0,0 l/m² 0,0 km/h N 0 ° 0 min 0 W/m² 15,1 °C 17,3 °C 0,0 km/h
04.09.2026 01:25 17,4 °C 86 % 1019,9 hPa 0,0 l/m² 0,0 km/h N 0 ° 0 min 0 W/m² 15,0 °C 17,4 °C 0,0 km/h
04.09.2026 01:20 17,5 °C 86 % 1019,8 hPa 0,0 l/m² 0,0 km/h N 0 ° 0 min 0 W/m² 15,1 °C 17,5 °C 0,0 km/h
04.09.2026 01:15 17,6 °C 85 % 1019,7 hPa 0,0 l/m² 0,0 km/h N 0 ° 0 min 0 W/m² 15,0 °C 17,6 °C 0,0 km/h
04.09.2026 01:10 17,6 °C 85 % 1019,8 hPa 0,0 l/m² 0,0 km/h N 0 ° 0 min 0 W/m² 15,0 °C 17,6 °C 0,0 km/h
04.09.2026 01:05 17,7 °C 86 % 1019,9 hPa 0,0 l/m² 0,0 km/h N 0 ° 0 min 0 W/m² 15,3 °C 17,7 °C 0,0 km/h
04.09.2026 01:00 17,7 °C 85 % 1019,8 hPa 0,0 l/m² 0,0 km/h N 0 ° 0 min 0 W/m² 15,1 °C 17,7 °C 0,0 km/h
04.09.2026 00:55 17,7 °C 86 % 1019,9 hPa 0,0 l/m² 0,0 km/h O-SO 112 ° 0 min 0 W/m² 15,3 °C 17,7 °C 1,6 km/h
04.09.2026 00:50 17,8 °C 85 % 1019,8 hPa 0,0 l/m² 0,0 km/h O-SO 112 ° 0 min 0 W/m² 15,2 °C 17,8 °C 6,4 km/h
04.09.2026 00:45 17,8 °C 85 % 1019,9 hPa 0,0 l/m² 1,6 km/h SO 135 ° 0 min 0 W/m² 15,2 °C 17,8 °C 6,4 km/h
04.09.2026 00:40 17,8 °C 85 % 1019,9 hPa 0,0 l/m² 3,2 km/h O-SO 112 ° 0 min 0 W/m² 15,2 °C 17,8 °C 8,0 km/h
04.09.2026 00:35 17,8 °C 85 % 1019,6 hPa 0,0 l/m² 3,2 km/h SO 135 ° 0 min 0 W/m² 15,2 °C 17,8 °C 11,3 km/h
04.09.2026 00:30 17,8 °C 85 % 1019,9 hPa 0,0 l/m² 3,2 km/h SO 135 ° 0 min 0 W/m² 15,2 °C 17,8 °C 11,3 km/h
04.09.2026 00:25 17,7 °C 85 % 1019,9 hPa 0,0 l/m² 1,6 km/h S-SO 157 ° 0 min 0 W/m² 15,1 °C 17,7 °C 9,7 km/h
04.09.2026 00:20 17,7 °C 85 % 1019,6 hPa 0,0 l/m² 4,8 km/h SO 135 ° 0 min 0 W/m² 15,1 °C 17,7 °C 12,9 km/h
04.09.2026 00:15 17,7 °C 85 % 1019,8 hPa 0,0 l/m² 3,2 km/h SO 135 ° 0 min 0 W/m² 15,1 °C 17,7 °C 9,7 km/h
04.09.2026 00:10 17,7 °C 85 % 1019,8 hPa 0,0 l/m² 4,8 km/h SO 135 ° 0 min 0 W/m² 15,1 °C 17,7 °C 11,3 km/h
04.09.2026 00:05 17,7 °C 86 % 1020,0 hPa 0,0 l/m² 0,0 km/h SO 135 ° 0 min 0 W/m² 15,3 °C 17,7 °C 4,8 km/h
04.09.2026 00:00 17,8 °C 87 % 1020,0 hPa 0,0 l/m² 0,0 km/h O-SO 112 ° 0 min 0 W/m² 15,6 °C 17,8 °C 1,6 km/h
03.09.2026 23:55 17,8 °C 87 % 1020,1 hPa 0,0 l/m² 1,6 km/h SO 135 ° 0 min 0 W/m² 15,6 °C 17,8 °C 6,4 km/h
03.09.2026 23:50 17,8 °C 87 % 1020,1 hPa 0,0 l/m² 0,0 km/h SO 135 ° 0 min 0 W/m² 15,6 °C 17,8 °C 3,2 km/h
03.09.2026 23:45 17,8 °C 87 % 1020,2 hPa 0,0 l/m² 0,0 km/h N 0 ° 0 min 0 W/m² 15,6 °C 17,8 °C 0,0 km/h
03.09.2026 23:40 17,8 °C 87 % 1020,2 hPa 0,0 l/m² 0,0 km/h SO 135 ° 0 min 0 W/m² 15,6 °C 17,8 °C 1,6 km/h
03.09.2026 23:35 17,7 °C 87 % 1020,2 hPa 0,0 l/m² 0,0 km/h SO 135 ° 0 min 0 W/m² 15,5 °C 17,7 °C 1,6 km/h
03.09.2026 23:30 17,7 °C 87 % 1019,9 hPa 0,0 l/m² 0,0 km/h SO 135 ° 0 min 0 W/m² 15,5 °C 17,7 °C 1,6 km/h
03.09.2026 23:25 17,8 °C 87 % 1019,8 hPa 0,0 l/m² 0,0 km/h N 0 ° 0 min 0 W/m² 15,6 °C 17,8 °C 0,0 km/h
03.09.2026 23:20 17,8 °C 88 % 1020,0 hPa 0,0 l/m² 0,0 km/h N 0 ° 0 min 0 W/m² 15,8 °C 17,8 °C 0,0 km/h
03.09.2026 23:15 17,8 °C 88 % 1020,1 hPa 0,0 l/m² 0,0 km/h SO 135 ° 0 min 0 W/m² 15,8 °C 17,8 °C 1,6 km/h
03.09.2026 23:10 17,8 °C 88 % 1019,8 hPa 0,0 l/m² 1,6 km/h S-SO 157 ° 0 min 0 W/m² 15,8 °C 17,8 °C 6,4 km/h
03.09.2026 23:05 17,8 °C 88 % 1019,9 hPa 0,0 l/m² 0,0 km/h S-SO 157 ° 0 min 0 W/m² 15,8 °C 17,8 °C 4,8 km/h
03.09.2026 23:00 17,8 °C 88 % 1019,7 hPa 0,0 l/m² 0,0 km/h S 180 ° 0 min 0 W/m² 15,8 °C 17,8 °C 3,2 km/h
03.09.2026 22:55 17,8 °C 88 % 1019,8 hPa 0,0 l/m² 0,0 km/h S 180 ° 0 min 0 W/m² 15,8 °C 17,8 °C 3,2 km/h
03.09.2026 22:50 17,8 °C 88 % 1019,8 hPa 0,0 l/m² 0,0 km/h W-SW 247 ° 0 min 0 W/m² 15,8 °C 17,8 °C 4,8 km/h
03.09.2026 22:45 17,7 °C 88 % 1019,8 hPa 0,0 l/m² 0,0 km/h W-NW 292 ° 0 min 0 W/m² 15,7 °C 17,7 °C 3,2 km/h
03.09.2026 22:40 17,7 °C 88 % 1019,7 hPa 0,0 l/m² 0,0 km/h W-NW 292 ° 0 min 0 W/m² 15,7 °C 17,7 °C 1,6 km/h
03.09.2026 22:35 17,7 °C 88 % 1019,6 hPa 0,0 l/m² 0,0 km/h N 0 ° 0 min 0 W/m² 15,7 °C 17,7 °C 0,0 km/h
03.09.2026 22:30 17,6 °C 89 % 1019,7 hPa 0,0 l/m² 0,0 km/h W-NW 292 ° 0 min 0 W/m² 15,8 °C 17,6 °C 4,8 km/h
03.09.2026 22:25 17,4 °C 90 % 1019,7 hPa 0,0 l/m² 1,6 km/h W-NW 292 ° 0 min 0 W/m² 15,7 °C 17,4 °C 4,8 km/h
03.09.2026 22:20 17,6 °C 91 % 1019,7 hPa 0,0 l/m² 1,6 km/h NW 315 ° 0 min 0 W/m² 16,1 °C 17,6 °C 3,2 km/h
03.09.2026 22:15 17,7 °C 90 % 1019,8 hPa 0,0 l/m² 0,0 km/h NW 315 ° 0 min 0 W/m² 16,0 °C 17,7 °C 3,2 km/h
03.09.2026 22:10 17,7 °C 90 % 1019,9 hPa 0,0 l/m² 0,0 km/h NW 315 ° 0 min 0 W/m² 16,0 °C 17,7 °C 3,2 km/h
03.09.2026 22:05 17,8 °C 89 % 1019,7 hPa 0,0 l/m² 3,2 km/h NW 315 ° 0 min 0 W/m² 16,0 °C 17,8 °C 4,8 km/h
03.09.2026 22:00 17,9 °C 87 % 1019,8 hPa 0,2 l/m² 1,6 km/h NW 315 ° 0 min 0 W/m² 15,7 °C 17,9 °C 3,2 km/h
03.09.2026 21:55 18,0 °C 87 % 1019,8 hPa 0,0 l/m² 0,0 km/h NW 315 ° 0 min 0 W/m² 15,8 °C 18,0 °C 3,2 km/h
03.09.2026 21:50 17,9 °C 88 % 1019,8 hPa 0,0 l/m² 0,0 km/h N 0 ° 0 min 0 W/m² 15,9 °C 17,9 °C 0,0 km/h
03.09.2026 21:45 17,8 °C 88 % 1019,9 hPa 0,0 l/m² 1,6 km/h NW 315 ° 0 min 0 W/m² 15,8 °C 17,8 °C 3,2 km/h
03.09.2026 21:40 17,8 °C 88 % 1019,8 hPa 0,0 l/m² 3,2 km/h W-NW 292 ° 0 min 0 W/m² 15,8 °C 17,8 °C 4,8 km/h
03.09.2026 21:35 17,7 °C 88 % 1019,6 hPa 0,0 l/m² 3,2 km/h W-NW 292 ° 0 min 0 W/m² 15,7 °C 17,7 °C 4,8 km/h
03.09.2026 21:30 18,0 °C 86 % 1019,8 hPa 0,0 l/m² 0,0 km/h W-NW 292 ° 0 min 0 W/m² 15,6 °C 18,0 °C 3,2 km/h
03.09.2026 21:25 18,1 °C 84 % 1019,9 hPa 0,0 l/m² 0,0 km/h N 0 ° 0 min 0 W/m² 15,4 °C 18,1 °C 0,0 km/h
03.09.2026 21:20 18,2 °C 83 % 1019,8 hPa 0,0 l/m² 1,6 km/h W-NW 292 ° 0 min 0 W/m² 15,3 °C 18,2 °C 4,8 km/h
03.09.2026 21:15 18,5 °C 82 % 1020,0 hPa 0,0 l/m² 3,2 km/h W-NW 292 ° 0 min 0 W/m² 15,4 °C 18,5 °C 12,9 km/h
03.09.2026 21:10 19,0 °C 80 % 1020,5 hPa 0,0 l/m² 8,0 km/h W 270 ° 0 min 0 W/m² 15,5 °C 18,3 °C 17,7 km/h
03.09.2026 21:05 19,4 °C 80 % 1020,5 hPa 0,0 l/m² 9,7 km/h W 270 ° 0 min 0 W/m² 15,9 °C 18,1 °C 19,3 km/h
03.09.2026 21:00 19,6 °C 78 % 1019,9 hPa 0,0 l/m² 1,6 km/h N 360 ° 0 min 0 W/m² 15,7 °C 19,6 °C 4,8 km/h
03.09.2026 20:55 19,9 °C 76 % 1019,7 hPa 0,0 l/m² 3,2 km/h N 360 ° 0 min 0 W/m² 15,5 °C 19,9 °C 4,8 km/h
03.09.2026 20:50 20,0 °C 75 % 1019,6 hPa 0,0 l/m² 3,2 km/h N 360 ° 0 min 0 W/m² 15,4 °C 20,0 °C 6,4 km/h
03.09.2026 20:45 20,1 °C 73 % 1019,4 hPa 0,0 l/m² 1,6 km/h N 360 ° 0 min 0 W/m² 15,1 °C 20,1 °C 4,8 km/h
03.09.2026 20:40 20,2 °C 73 % 1019,4 hPa 0,0 l/m² 0,0 km/h N 360 ° 0 min 0 W/m² 15,2 °C 20,2 °C 3,2 km/h
03.09.2026 20:35 20,3 °C 73 % 1019,3 hPa 0,0 l/m² 1,6 km/h N 360 ° 0 min 0 W/m² 15,3 °C 20,3 °C 1,6 km/h
03.09.2026 20:30 20,4 °C 71 % 1019,2 hPa 0,0 l/m² 1,6 km/h N 360 ° 0 min 0 W/m² 15,0 °C 20,4 °C 3,2 km/h
03.09.2026 20:25 20,4 °C 70 % 1019,4 hPa 0,0 l/m² 1,6 km/h N 360 ° 0 min 0 W/m² 14,7 °C 20,4 °C 3,2 km/h
03.09.2026 20:20 20,6 °C 70 % 1019,1 hPa 0,0 l/m² 0,0 km/h N 360 ° 0 min 0 W/m² 14,9 °C 20,6 °C 1,6 km/h
03.09.2026 20:15 20,6 °C 71 % 1019,0 hPa 0,0 l/m² 1,6 km/h N 360 ° 0 min 0 W/m² 15,2 °C 20,6 °C 3,2 km/h
03.09.2026 20:10 20,6 °C 70 % 1019,0 hPa 0,0 l/m² 1,6 km/h N 360 ° 0 min 0 W/m² 14,9 °C 20,6 °C 3,2 km/h
03.09.2026 20:05 20,6 °C 70 % 1018,9 hPa 0,0 l/m² 1,6 km/h N 360 ° 0 min 0 W/m² 14,9 °C 20,6 °C 3,2 km/h
03.09.2026 20:00 20,6 °C 70 % 1018,9 hPa 0,0 l/m² 3,2 km/h N 360 ° 0 min 0 W/m² 14,9 °C 20,6 °C 6,4 km/h
03.09.2026 19:55 20,6 °C 71 % 1018,9 hPa 0,0 l/m² 1,6 km/h N 360 ° 0 min 0 W/m² 15,2 °C 20,6 °C 4,8 km/h
03.09.2026 19:50 20,6 °C 71 % 1018,9 hPa 0,0 l/m² 3,2 km/h N 360 ° 0 min 0 W/m² 15,2 °C 20,6 °C 6,4 km/h
03.09.2026 19:45 20,5 °C 72 % 1019,0 hPa 0,0 l/m² 1,6 km/h N 360 ° 0 min 0 W/m² 15,3 °C 20,5 °C 4,8 km/h
03.09.2026 19:40 20,6 °C 71 % 1019,0 hPa 0,0 l/m² 0,0 km/h N 360 ° 0 min 0 W/m² 15,2 °C 20,6 °C 3,2 km/h
03.09.2026 19:35 20,6 °C 72 % 1019,0 hPa 0,0 l/m² 3,2 km/h N 360 ° 0 min 0 W/m² 15,4 °C 20,6 °C 4,8 km/h
03.09.2026 19:30 20,7 °C 71 % 1019,0 hPa 0,0 l/m² 3,2 km/h N-NW 337 ° 0 min 0 W/m² 15,2 °C 20,7 °C 6,4 km/h
03.09.2026 19:25 20,7 °C 71 % 1018,9 hPa 0,0 l/m² 4,8 km/h N 360 ° 0 min 0 W/m² 15,2 °C 20,7 °C 8,0 km/h
03.09.2026 19:20 20,7 °C 71 % 1018,9 hPa 0,0 l/m² 3,2 km/h N 360 ° 0 min 5 W/m² 15,2 °C 20,7 °C 6,4 km/h
03.09.2026 19:15 20,4 °C 74 % 1018,9 hPa 0,0 l/m² 3,2 km/h N 360 ° 0 min 7 W/m² 15,6 °C 20,4 °C 4,8 km/h
03.09.2026 19:10 20,4 °C 76 % 1018,8 hPa 0,0 l/m² 1,6 km/h N 360 ° 0 min 7 W/m² 16,0 °C 20,4 °C 3,2 km/h
03.09.2026 19:05 20,4 °C 75 % 1018,9 hPa 0,0 l/m² 1,6 km/h N 360 ° 0 min 11 W/m² 15,8 °C 20,4 °C 3,2 km/h
03.09.2026 19:00 20,4 °C 75 % 1018,8 hPa 0,0 l/m² 1,6 km/h N 360 ° 0 min 16 W/m² 15,8 °C 20,4 °C 3,2 km/h
03.09.2026 18:55 20,4 °C 75 % 1019,0 hPa 0,0 l/m² 1,6 km/h N 360 ° 0 min 23 W/m² 15,8 °C 20,4 °C 3,2 km/h
03.09.2026 18:50 20,6 °C 73 % 1018,9 hPa 0,0 l/m² 1,6 km/h N 360 ° 0 min 25 W/m² 15,6 °C 20,6 °C 4,8 km/h
03.09.2026 18:45 20,7 °C 73 % 1019,0 hPa 0,0 l/m² 1,6 km/h N 360 ° 0 min 35 W/m² 15,7 °C 20,7 °C 4,8 km/h
03.09.2026 18:40 20,7 °C 71 % 1019,0 hPa 0,0 l/m² 3,2 km/h N 360 ° 0 min 35 W/m² 15,2 °C 20,7 °C 6,4 km/h
03.09.2026 18:35 20,8 °C 72 % 1019,1 hPa 0,0 l/m² 3,2 km/h N 360 ° 0 min 35 W/m² 15,6 °C 20,8 °C 6,4 km/h
03.09.2026 18:30 20,7 °C 75 % 1019,2 hPa 0,0 l/m² 3,2 km/h N 360 ° 0 min 39 W/m² 16,1 °C 20,7 °C 6,4 km/h
03.09.2026 18:25 21,3 °C 70 % 1019,0 hPa 0,0 l/m² 3,2 km/h W-NW 292 ° 0 min 40 W/m² 15,6 °C 21,3 °C 9,7 km/h
03.09.2026 18:20 21,5 °C 69 % 1019,0 hPa 0,0 l/m² 3,2 km/h W-NW 292 ° 0 min 40 W/m² 15,6 °C 21,5 °C 9,7 km/h
03.09.2026 18:15 21,8 °C 67 % 1019,0 hPa 0,0 l/m² 4,8 km/h W-NW 292 ° 0 min 65 W/m² 15,4 °C 21,8 °C 9,7 km/h
03.09.2026 18:10 21,9 °C 66 % 1018,9 hPa 0,0 l/m² 3,2 km/h W-NW 292 ° 0 min 70 W/m² 15,3 °C 21,9 °C 8,0 km/h
03.09.2026 18:05 22,1 °C 66 % 1018,9 hPa 0,0 l/m² 3,2 km/h W-NW 292 ° 0 min 67 W/m² 15,4 °C 22,1 °C 6,4 km/h
03.09.2026 18:00 22,4 °C 64 % 1018,9 hPa 0,0 l/m² 3,2 km/h NW 315 ° 0 min 58 W/m² 15,2 °C 22,4 °C 8,0 km/h
03.09.2026 17:55 22,8 °C 62 % 1018,9 hPa 0,0 l/m² 4,8 km/h W 270 ° 0 min 47 W/m² 15,1 °C 22,8 °C 9,7 km/h
03.09.2026 17:50 22,9 °C 60 % 1018,9 hPa 0,0 l/m² 3,2 km/h W-NW 292 ° 0 min 44 W/m² 14,7 °C 22,9 °C 8,0 km/h
03.09.2026 17:45 22,9 °C 59 % 1019,0 hPa 0,0 l/m² 6,4 km/h NW 315 ° 0 min 51 W/m² 14,5 °C 22,9 °C 16,1 km/h
03.09.2026 17:40 23,1 °C 58 % 1019,0 hPa 0,0 l/m² 8,0 km/h NW 315 ° 0 min 65 W/m² 14,4 °C 22,6 °C 19,3 km/h
03.09.2026 17:35 23,1 °C 58 % 1019,1 hPa 0,0 l/m² 8,0 km/h NW 315 ° 0 min 91 W/m² 14,4 °C 22,6 °C 17,7 km/h
03.09.2026 17:30 23,2 °C 58 % 1019,0 hPa 0,0 l/m² 6,4 km/h W-NW 292 ° 0 min 95 W/m² 14,5 °C 23,2 °C 12,9 km/h
03.09.2026 17:25 23,3 °C 58 % 1019,0 hPa 0,0 l/m² 9,7 km/h W-NW 292 ° 0 min 100 W/m² 14,6 °C 22,4 °C 16,1 km/h
03.09.2026 17:20 23,3 °C 57 % 1019,1 hPa 0,0 l/m² 6,4 km/h NW 315 ° 0 min 100 W/m² 14,3 °C 23,3 °C 12,9 km/h
03.09.2026 17:15 23,4 °C 56 % 1019,2 hPa 0,0 l/m² 8,0 km/h W-NW 292 ° 0 min 125 W/m² 14,1 °C 22,9 °C 16,1 km/h
03.09.2026 17:10 23,4 °C 57 % 1019,1 hPa 0,0 l/m² 11,3 km/h NW 315 ° 0 min 153 W/m² 14,4 °C 22,1 °C 17,7 km/h
03.09.2026 17:05 23,4 °C 56 % 1019,2 hPa 0,0 l/m² 9,7 km/h W-NW 292 ° 0 min 149 W/m² 14,1 °C 22,5 °C 16,1 km/h
03.09.2026 17:00 23,5 °C 57 % 1019,1 hPa 0,0 l/m² 9,7 km/h W 270 ° 0 min 132 W/m² 14,5 °C 22,6 °C 17,7 km/h
03.09.2026 16:55 23,7 °C 56 % 1019,2 hPa 0,0 l/m² 9,7 km/h W 270 ° 0 min 172 W/m² 14,4 °C 22,8 °C 19,3 km/h
03.09.2026 16:50 24,0 °C 55 % 1019,2 hPa 0,0 l/m² 6,4 km/h W-NW 292 ° 0 min 192 W/m² 14,4 °C 24,0 °C 12,9 km/h
03.09.2026 16:45 23,9 °C 55 % 1019,2 hPa 0,0 l/m² 6,4 km/h W-NW 292 ° 0 min 221 W/m² 14,3 °C 23,9 °C 17,7 km/h
03.09.2026 16:40 23,9 °C 56 % 1019,2 hPa 0,0 l/m² 8,0 km/h W-NW 292 ° 0 min 272 W/m² 14,6 °C 23,4 °C 16,1 km/h
03.09.2026 16:35 23,9 °C 55 % 1019,3 hPa 0,0 l/m² 12,9 km/h W-NW 292 ° 0 min 257 W/m² 14,3 °C 22,3 °C 22,5 km/h
03.09.2026 16:30 24,2 °C 54 % 1019,3 hPa 0,0 l/m² 14,5 km/h W-NW 292 ° 5 min 366 W/m² 14,3 °C 22,4 °C 24,1 km/h
03.09.2026 16:25 24,3 °C 54 % 1019,4 hPa 0,0 l/m² 12,9 km/h W 270 ° 0 min 320 W/m² 14,4 °C 22,8 °C 22,5 km/h
03.09.2026 16:20 24,2 °C 55 % 1019,4 hPa 0,0 l/m² 12,9 km/h W-NW 292 ° 0 min 309 W/m² 14,6 °C 22,7 °C 24,1 km/h
03.09.2026 16:15 24,1 °C 55 % 1019,4 hPa 0,0 l/m² 8,0 km/h W 270 ° 5 min 417 W/m² 14,5 °C 23,7 °C 16,1 km/h
03.09.2026 16:10 23,9 °C 55 % 1019,5 hPa 0,0 l/m² 11,3 km/h W 270 ° 0 min 294 W/m² 14,3 °C 22,7 °C 19,3 km/h
03.09.2026 16:05 23,9 °C 56 % 1019,5 hPa 0,0 l/m² 11,3 km/h W 270 ° 0 min 255 W/m² 14,6 °C 22,7 °C 19,3 km/h
03.09.2026 16:00 24,1 °C 54 % 1019,5 hPa 0,0 l/m² 9,7 km/h W 270 ° 0 min 295 W/m² 14,2 °C 23,2 °C 20,9 km/h
03.09.2026 15:55 24,4 °C 54 % 1019,5 hPa 0,0 l/m² 9,7 km/h W-NW 292 ° 5 min 448 W/m² 14,5 °C 23,6 °C 19,3 km/h
03.09.2026 15:50 24,6 °C 56 % 1019,3 hPa 0,0 l/m² 8,0 km/h W-NW 292 ° 0 min 371 W/m² 15,2 °C 24,2 °C 16,1 km/h
03.09.2026 15:45 24,4 °C 55 % 1019,3 hPa 0,0 l/m² 9,7 km/h W 270 ° 5 min 570 W/m² 14,8 °C 23,6 °C 16,1 km/h
03.09.2026 15:40 23,9 °C 55 % 1019,4 hPa 0,0 l/m² 6,4 km/h W 270 ° 0 min 332 W/m² 14,3 °C 23,9 °C 14,5 km/h
03.09.2026 15:35 23,9 °C 56 % 1019,6 hPa 0,0 l/m² 9,7 km/h W 270 ° 0 min 246 W/m² 14,6 °C 23,0 °C 17,7 km/h
03.09.2026 15:30 24,1 °C 55 % 1019,5 hPa 0,0 l/m² 11,3 km/h W 270 ° 0 min 272 W/m² 14,5 °C 22,9 °C 25,7 km/h
03.09.2026 15:25 24,4 °C 54 % 1019,5 hPa 0,0 l/m² 9,7 km/h W-NW 292 ° 0 min 311 W/m² 14,5 °C 23,6 °C 20,9 km/h
03.09.2026 15:20 24,6 °C 53 % 1019,5 hPa 0,0 l/m² 12,9 km/h SW 225 ° 0 min 374 W/m² 14,4 °C 23,2 °C 22,5 km/h
03.09.2026 15:15 25,1 °C 52 % 1019,6 hPa 0,0 l/m² 9,7 km/h SW 225 ° 5 min 863 W/m² 14,5 °C 24,3 °C 20,9 km/h
03.09.2026 15:10 25,2 °C 56 % 1019,4 hPa 0,0 l/m² 4,8 km/h S 180 ° 5 min 854 W/m² 15,8 °C 25,2 °C 17,7 km/h
03.09.2026 15:05 24,7 °C 53 % 1019,4 hPa 0,0 l/m² 8,0 km/h NW 315 ° 5 min 462 W/m² 14,5 °C 24,3 °C 22,5 km/h
03.09.2026 15:00 24,5 °C 55 % 1019,5 hPa 0,0 l/m² 11,3 km/h W 270 ° 5 min 497 W/m² 14,9 °C 23,3 °C 17,7 km/h
_ Min-Zeit 06:30 13:50 13:50 - 19:40 - - - - 06:30 06:30 21:25
Minimum _ 14,3 °C 51 % 1014,6 hPa - 0,0 km/h - - - - 13,2 °C 14,3 °C 0,0 km/h
_ Max-Zeit 13:30 07:30 21:05 22:00 13:15 - - 15:00 15:15 12:00 13:30 13:15
Maximum _ 28,1 °C 95 % 1020,5 hPa 0,2 l/m² 17,7 km/h
S
- - 5 min 863 W/m² 18,8 °C 28,1 °C 35,4 km/h
S
Durchschnitt _ 19,8 °C 77 % 1018,8 hPa #0,2 l/m² 4,0 km/h NO - #3:40 h 404 W/m² 15,2 °C 19,6 °C 8,8 km/h